Time;durP1;ratioP1;P1;durP2;ratioP2;P2;SDS_P1;SDS_P2;PMS_P1;PMS_P2;Temp;Humidity;BMP_temperature;BMP_pressure;BME280_temperature;BME280_humidity;BME280_pressure;Samples;Min_cycle;Max_cycle;Signal;HPM_P1;HPM_P2
2020/12/17 00:00:15;;;;;;;20.45;13.43;;;5.30;99.90;;;;;;4975924;28;20654;-85
2020/12/17 00:02:41;;;;;;;19.40;13.05;;;5.30;99.90;;;;;;4981178;28;20296;-84
2020/12/17 00:05:08;;;;;;;21.67;12.35;;;5.30;99.90;;;;;;5018957;28;20234;-87
2020/12/17 00:07:36;;;;;;;20.70;14.38;;;5.30;99.90;;;;;;5023649;28;20239;-86
2020/12/17 00:10:05;;;;;;;22.58;13.45;;;5.30;99.90;;;;;;5010849;28;20362;-85
2020/12/17 00:12:35;;;;;;;24.30;14.52;;;5.30;99.90;;;;;;5015258;28;20243;-87
2020/12/17 00:15:01;;;;;;;19.70;14.60;;;5.30;99.90;;;;;;5014386;28;20623;-85
2020/12/17 00:17:28;;;;;;;23.40;13.82;;;5.20;99.90;;;;;;5016646;28;20246;-84
2020/12/17 00:19:54;;;;;;;25.58;15.98;;;5.20;99.90;;;;;;5013520;28;20294;-84
2020/12/17 00:22:20;;;;;;;16.27;12.95;;;5.30;99.90;;;;;;5014611;28;20290;-84
2020/12/17 00:24:47;;;;;;;22.60;13.95;;;5.20;99.90;;;;;;5014560;28;20326;-84
2020/12/17 00:27:14;;;;;;;18.75;13.60;;;5.20;99.90;;;;;;5014574;28;20246;-84
2020/12/17 00:29:40;;;;;;;19.85;12.63;;;5.10;99.90;;;;;;5014568;28;20295;-84
2020/12/17 00:32:07;;;;;;;19.83;13.68;;;5.10;99.90;;;;;;5014576;28;20303;-85
2020/12/17 00:34:33;;;;;;;18.48;13.05;;;5.10;99.90;;;;;;5012915;28;20706;-83
2020/12/17 00:36:59;;;;;;;18.40;12.45;;;5.10;99.90;;;;;;5014238;28;20646;-85
2020/12/17 00:39:26;;;;;;;16.70;12.32;;;5.00;99.90;;;;;;5014475;28;20286;-84
2020/12/17 00:41:52;;;;;;;17.10;12.48;;;5.00;99.90;;;;;;5014257;28;20290;-84
2020/12/17 00:44:19;;;;;;;16.48;13.63;;;4.90;99.90;;;;;;5013646;28;20298;-84
2020/12/17 00:46:50;;;;;;;15.50;13.07;;;4.90;99.90;;;;;;5014253;28;20321;-84
2020/12/17 00:49:16;;;;;;;17.05;13.38;;;4.90;99.90;;;;;;5012721;28;20211;-84
2020/12/17 00:51:43;;;;;;;15.35;11.23;;;4.90;99.90;;;;;;5014024;28;20611;-84
2020/12/17 00:54:09;;;;;;;19.95;13.20;;;4.90;99.90;;;;;;5014051;28;20282;-84
2020/12/17 00:56:35;;;;;;;17.42;12.95;;;4.90;99.90;;;;;;5014084;28;20302;-84
2020/12/17 00:59:02;;;;;;;23.80;13.27;;;4.90;99.90;;;;;;5013855;28;20314;-83
2020/12/17 01:01:29;;;;;;;19.42;14.05;;;5.00;99.90;;;;;;5013952;28;20295;-84
2020/12/17 01:03:55;;;;;;;17.10;12.27;;;5.00;99.90;;;;;;5012448;28;20312;-84
2020/12/17 01:06:22;;;;;;;17.75;12.00;;;5.00;99.90;;;;;;5012388;28;20322;-84
2020/12/17 01:08:48;;;;;;;19.90;11.48;;;5.00;99.90;;;;;;5013977;28;20302;-83
2020/12/17 01:11:14;;;;;;;18.88;11.85;;;5.00;99.90;;;;;;5013926;28;20307;-83
2020/12/17 01:13:41;;;;;;;18.88;12.73;;;5.00;99.90;;;;;;5013872;28;20253;-86
2020/12/17 01:16:09;;;;;;;18.48;11.57;;;5.00;99.90;;;;;;5013882;28;20616;-84
2020/12/17 01:18:36;;;;;;;13.82;11.95;;;5.00;99.90;;;;;;5012258;28;20199;-84
2020/12/17 01:21:04;;;;;;;16.55;11.77;;;5.10;99.90;;;;;;5013356;28;20302;-84
2020/12/17 01:23:30;;;;;;;14.30;11.15;;;5.10;99.90;;;;;;5013604;28;20298;-85
2020/12/17 01:25:57;;;;;;;18.67;13.05;;;5.10;99.90;;;;;;5012782;28;20785;-84
2020/12/17 01:28:23;;;;;;;19.70;12.57;;;5.00;99.90;;;;;;5013285;28;20734;-87
2020/12/17 01:30:50;;;;;;;17.55;13.35;;;4.90;99.90;;;;;;5013405;28;20778;-85
2020/12/17 01:33:18;;;;;;;16.33;11.63;;;4.80;99.90;;;;;;5013390;28;20294;-85
2020/12/17 01:35:45;;;;;;;17.50;11.57;;;4.80;99.90;;;;;;5011866;28;20208;-85
2020/12/17 01:38:12;;;;;;;20.92;12.70;;;4.70;99.90;;;;;;5013430;28;20294;-85
2020/12/17 01:40:38;;;;;;;18.80;11.38;;;4.60;99.90;;;;;;5013369;28;20290;-86
2020/12/17 01:43:04;;;;;;;15.40;12.07;;;4.60;99.90;;;;;;5012241;28;20725;-84
2020/12/17 01:45:31;;;;;;;17.80;12.15;;;4.50;99.90;;;;;;5013210;28;20281;-85
2020/12/17 01:47:59;;;;;;;16.58;13.30;;;4.50;99.90;;;;;;5013136;28;20239;-85
2020/12/17 01:50:25;;;;;;;17.05;11.65;;;4.40;99.90;;;;;;5011717;28;20203;-85
2020/12/17 01:52:53;;;;;;;18.35;13.85;;;4.50;99.90;;;;;;5013111;28;20290;-85
2020/12/17 01:55:20;;;;;;;15.23;11.30;;;4.40;99.90;;;;;;5013116;28;20253;-84
2020/12/17 01:57:48;;;;;;;19.05;12.45;;;4.40;99.90;;;;;;5013256;28;20207;-84
2020/12/17 02:00:18;;;;;;;17.92;13.10;;;4.40;99.90;;;;;;5012754;28;20712;-84
2020/12/17 02:02:47;;;;;;;18.77;11.70;;;4.30;99.90;;;;;;5013103;28;20342;-84
2020/12/17 02:05:14;;;;;;;17.52;12.40;;;4.30;99.90;;;;;;5011949;28;20691;-83
2020/12/17 02:07:43;;;;;;;19.30;14.27;;;4.40;99.90;;;;;;5012974;28;20221;-84
2020/12/17 02:10:11;;;;;;;17.73;11.90;;;4.30;99.90;;;;;;5012935;28;20214;-86
2020/12/17 02:12:48;;;;;;;16.13;12.68;;;4.30;99.90;;;;;;5012864;28;20303;-84
2020/12/17 02:15:15;;;;;;;18.58;13.43;;;4.20;99.90;;;;;;5012930;28;20238;-84
2020/12/17 02:17:42;;;;;;;20.83;12.48;;;4.20;99.90;;;;;;5012840;28;20290;-84
2020/12/17 02:20:09;;;;;;;20.45;13.40;;;4.10;99.90;;;;;;5011589;28;20298;-83
2020/12/17 02:22:36;;;;;;;16.15;13.13;;;4.10;99.90;;;;;;5012565;28;20302;-84
2020/12/17 02:25:04;;;;;;;15.77;11.90;;;4.00;99.90;;;;;;5012734;28;20310;-85
2020/12/17 02:27:31;;;;;;;18.40;11.55;;;4.00;99.90;;;;;;5012723;28;20675;-84
2020/12/17 02:29:57;;;;;;;17.10;13.23;;;3.90;99.90;;;;;;5012815;28;20310;-84
2020/12/17 02:32:24;;;;;;;15.07;11.35;;;3.80;99.90;;;;;;5012830;28;20238;-84
2020/12/17 02:34:50;;;;;;;20.75;13.00;;;3.80;99.90;;;;;;5011516;28;20298;-84
2020/12/17 02:37:17;;;;;;;14.77;11.00;;;3.80;99.90;;;;;;5012591;28;20294;-83
2020/12/17 02:39:43;;;;;;;16.25;12.13;;;3.80;99.90;;;;;;5016663;28;20230;-84
2020/12/17 02:42:10;;;;;;;18.05;13.40;;;3.80;99.90;;;;;;5016470;28;20287;-83
2020/12/17 02:44:37;;;;;;;17.42;11.30;;;3.90;99.90;;;;;;5008595;28;20303;-83
2020/12/17 02:47:03;;;;;;;18.33;12.63;;;4.00;99.90;;;;;;5016592;28;20290;-83
2020/12/17 02:49:30;;;;;;;20.45;14.30;;;4.00;99.90;;;;;;5015223;28;20730;-85
2020/12/17 02:51:56;;;;;;;19.45;14.20;;;4.10;99.90;;;;;;5016243;28;20204;-85
2020/12/17 02:54:22;;;;;;;20.55;14.30;;;4.10;99.90;;;;;;5016577;28;20628;-85
2020/12/17 02:56:49;;;;;;;19.10;13.30;;;4.10;99.90;;;;;;5016283;28;20303;-85
2020/12/17 02:59:16;;;;;;;21.20;14.00;;;4.00;99.90;;;;;;5016154;28;20326;-85
2020/12/17 03:01:42;;;;;;;20.17;11.65;;;3.90;99.90;;;;;;5016180;28;20294;-84
2020/12/17 03:04:09;;;;;;;15.70;11.55;;;3.90;99.90;;;;;;5015037;28;20302;-85
2020/12/17 03:06:35;;;;;;;23.25;14.05;;;3.90;99.90;;;;;;5014710;28;20765;-84
2020/12/17 03:09:03;;;;;;;21.42;13.35;;;3.90;99.90;;;;;;5017338;28;20250;-84
2020/12/17 03:11:29;;;;;;;20.70;12.40;;;3.90;99.90;;;;;;5016348;28;20291;-86
2020/12/17 03:13:55;;;;;;;18.75;12.35;;;3.90;99.90;;;;;;5016547;28;20711;-84
2020/12/17 03:16:23;;;;;;;19.05;14.50;;;4.00;99.90;;;;;;5017194;28;20254;-83
2020/12/17 03:18:49;;;;;;;14.65;12.38;;;4.00;99.90;;;;;;5017815;28;20242;-83
2020/12/17 03:21:16;;;;;;;19.85;12.57;;;4.00;99.90;;;;;;5030217;28;20215;-85
2020/12/17 03:23:42;;;;;;;17.30;13.27;;;4.10;99.90;;;;;;5029020;28;20237;-84
2020/12/17 03:26:09;;;;;;;26.58;16.15;;;4.10;99.90;;;;;;5029288;28;20258;-85
2020/12/17 03:28:35;;;;;;;20.27;12.77;;;4.10;99.90;;;;;;5017321;28;20295;-84
2020/12/17 03:31:02;;;;;;;20.27;12.30;;;4.10;99.90;;;;;;5016133;28;20236;-85
2020/12/17 03:33:29;;;;;;;19.83;13.93;;;4.00;99.90;;;;;;5015399;28;20290;-85
2020/12/17 03:35:55;;;;;;;20.98;14.65;;;4.00;99.90;;;;;;5015645;28;20544;-84
2020/12/17 03:38:22;;;;;;;17.38;13.05;;;4.00;99.90;;;;;;4996290;28;20244;-84
2020/12/17 03:40:48;;;;;;;16.60;13.13;;;4.10;99.90;;;;;;4995919;28;20295;-84
2020/12/17 03:43:14;;;;;;;19.23;12.98;;;4.10;99.90;;;;;;4995853;28;20295;-84
2020/12/17 03:45:41;;;;;;;25.25;15.23;;;4.20;99.90;;;;;;4995811;28;20231;-85
2020/12/17 03:48:07;;;;;;;15.82;13.50;;;4.30;99.90;;;;;;4995861;28;20302;-82
2020/12/17 03:50:34;;;;;;;15.95;11.75;;;4.40;99.90;;;;;;4993342;28;20291;-83
2020/12/17 03:53:01;;;;;;;24.33;14.90;;;4.50;99.90;;;;;;4995478;28;20299;-83
2020/12/17 03:55:28;;;;;;;21.65;13.85;;;4.50;99.90;;;;;;4995625;28;20323;-87
2020/12/17 03:57:55;;;;;;;26.27;14.88;;;4.40;99.90;;;;;;4995523;28;20623;-85
2020/12/17 04:00:21;;;;;;;27.08;14.45;;;4.50;99.90;;;;;;4995662;28;20292;-86
2020/12/17 04:02:47;;;;;;;17.75;12.80;;;4.50;99.90;;;;;;4995614;28;20299;-85
2020/12/17 04:05:14;;;;;;;19.98;11.95;;;4.60;99.90;;;;;;4994200;28;20318;-83
2020/12/17 04:07:41;;;;;;;24.88;14.00;;;4.70;99.90;;;;;;5008767;28;20219;-84
2020/12/17 04:10:08;;;;;;;19.20;14.52;;;4.80;99.90;;;;;;5014865;28;20208;-86
2020/12/17 04:12:34;;;;;;;17.73;12.45;;;4.80;99.90;;;;;;5014945;28;20231;-84
2020/12/17 04:15:00;;;;;;;21.20;13.68;;;4.80;99.90;;;;;;5014993;28;20299;-83
2020/12/17 04:17:27;;;;;;;15.73;12.93;;;4.80;99.90;;;;;;5014862;28;20739;-84
2020/12/17 04:19:53;;;;;;;19.35;13.20;;;4.80;99.90;;;;;;5013637;28;20667;-85
2020/12/17 04:22:19;;;;;;;19.05;13.85;;;4.80;99.90;;;;;;5014500;28;20199;-84
2020/12/17 04:24:47;;;;;;;18.35;11.75;;;4.70;99.90;;;;;;5014610;28;20295;-84
2020/12/17 04:27:14;;;;;;;23.15;14.27;;;4.60;99.90;;;;;;5014740;28;20623;-84
2020/12/17 04:29:41;;;;;;;20.92;13.65;;;4.70;99.90;;;;;;5014740;28;20287;-86
2020/12/17 04:32:07;;;;;;;16.30;12.27;;;4.70;99.90;;;;;;5014561;28;20232;-84
2020/12/17 04:34:34;;;;;;;19.00;14.43;;;4.70;99.90;;;;;;5013342;28;20631;-85
2020/12/17 04:37:00;;;;;;;17.48;12.23;;;4.80;99.90;;;;;;5014022;28;20398;-84
2020/12/17 04:39:26;;;;;;;17.42;12.07;;;4.80;99.90;;;;;;5014550;28;20286;-86
2020/12/17 04:41:54;;;;;;;17.33;12.95;;;4.80;99.90;;;;;;5014477;28;20215;-84
2020/12/17 04:44:20;;;;;;;17.30;13.40;;;4.80;99.90;;;;;;5014513;28;20678;-82
2020/12/17 04:46:55;;;;;;;16.92;12.32;;;4.90;99.90;;;;;;5014361;28;20342;-85
2020/12/17 04:49:25;;;;;;;15.73;11.63;;;4.80;99.90;;;;;;5009926;28;20211;-85
2020/12/17 04:51:56;;;;;;;15.75;11.88;;;4.70;99.90;;;;;;5014316;28;20238;-85
2020/12/17 04:54:23;;;;;;;15.98;11.10;;;4.60;99.90;;;;;;5025137;28;20204;-85
2020/12/17 04:56:59;;;;;;;16.33;11.02;;;4.70;99.90;;;;;;5016247;28;20660;-85
2020/12/17 04:59:39;;;;;;;19.77;10.60;;;4.60;99.90;;;;;;5014647;28;20372;-84
2020/12/17 05:02:06;;;;;;;19.60;12.35;;;4.60;99.90;;;;;;5013869;28;20290;-83
2020/12/17 05:04:36;;;;;;;17.05;11.40;;;4.50;99.90;;;;;;5012945;28;20290;-85
2020/12/17 05:07:08;;;;;;;16.95;10.73;;;4.60;99.90;;;;;;5005237;28;20232;-83
2020/12/17 05:09:34;;;;;;;18.40;11.98;;;4.60;99.90;;;;;;4994202;28;20295;-88
2020/12/17 05:12:02;;;;;;;16.13;11.05;;;4.70;99.90;;;;;;4994220;28;20287;-84
2020/12/17 05:14:29;;;;;;;17.45;12.48;;;4.70;99.90;;;;;;4994047;28;20295;-85
2020/12/17 05:16:56;;;;;;;20.30;12.20;;;4.80;99.90;;;;;;4994169;28;20259;-84
2020/12/17 05:19:23;;;;;;;15.85;10.68;;;4.70;99.90;;;;;;4992978;28;20230;-84
2020/12/17 05:21:50;;;;;;;14.20;10.95;;;4.70;99.90;;;;;;4993792;28;20211;-85
2020/12/17 05:24:16;;;;;;;14.25;10.65;;;4.70;99.90;;;;;;4993884;28;20296;-85
2020/12/17 05:26:43;;;;;;;21.60;11.93;;;4.60;99.90;;;;;;4989783;28;20322;-85
2020/12/17 05:29:11;;;;;;;16.95;11.60;;;4.50;99.90;;;;;;4993649;28;20240;-85
2020/12/17 05:31:38;;;;;;;14.25;10.10;;;4.50;99.90;;;;;;4993806;28;20220;-86
2020/12/17 05:34:05;;;;;;;14.88;10.55;;;4.50;99.90;;;;;;4992498;28;20736;-83
2020/12/17 05:36:33;;;;;;;14.43;10.70;;;4.40;99.90;;;;;;4997634;28;20239;-84
2020/12/17 05:39:11;;;;;;;14.70;10.68;;;4.40;99.90;;;;;;5013406;28;20242;-84
2020/12/17 05:41:38;;;;;;;13.98;10.32;;;4.30;99.90;;;;;;5002151;28;20245;-85
2020/12/17 05:44:14;;;;;;;15.23;9.68;;;4.20;99.90;;;;;;5012852;28;20238;-86
2020/12/17 05:46:42;;;;;;;13.95;10.52;;;4.10;99.90;;;;;;5005449;28;20327;-84
2020/12/17 05:49:15;;;;;;;17.33;11.20;;;4.00;99.90;;;;;;5011981;28;20207;-87
2020/12/17 05:51:43;;;;;;;12.23;9.60;;;3.90;99.90;;;;;;5012634;28;20287;-83
2020/12/17 05:54:10;;;;;;;14.85;11.07;;;4.00;99.90;;;;;;5013052;28;20214;-85
2020/12/17 05:56:37;;;;;;;13.63;11.02;;;3.90;99.90;;;;;;5012992;28;20301;-85
2020/12/17 05:59:05;;;;;;;13.77;10.02;;;3.90;99.90;;;;;;5013089;28;20325;-85
2020/12/17 06:01:33;;;;;;;14.00;10.13;;;4.00;99.90;;;;;;5013145;28;20704;-86
2020/12/17 06:04:13;;;;;;;14.27;8.85;;;4.10;99.90;;;;;;5011888;28;20208;-85
2020/12/17 06:06:45;;;;;;;15.27;10.80;;;4.10;99.90;;;;;;5012630;28;20326;-84
2020/12/17 06:09:20;;;;;;;13.50;9.50;;;4.10;99.90;;;;;;5013265;28;20257;-85
2020/12/17 06:11:47;;;;;;;14.32;10.35;;;4.10;99.90;;;;;;5013009;28;20729;-85
2020/12/17 06:14:14;;;;;;;15.35;10.35;;;4.20;99.90;;;;;;5012922;28;20371;-85
2020/12/17 06:16:43;;;;;;;14.32;9.65;;;4.20;99.90;;;;;;5013092;28;20226;-86
2020/12/17 06:19:12;;;;;;;18.10;11.02;;;4.20;99.90;;;;;;5008911;28;20208;-85
2020/12/17 06:21:41;;;;;;;16.55;10.90;;;4.20;99.90;;;;;;5012863;28;20203;-86
2020/12/17 06:24:08;;;;;;;14.32;10.32;;;4.30;99.90;;;;;;5013095;28;20224;-87
2020/12/17 06:26:40;;;;;;;21.08;11.57;;;4.30;99.90;;;;;;5012892;28;20317;-85
2020/12/17 06:29:18;;;;;;;20.88;10.95;;;4.30;99.90;;;;;;5013077;28;20259;-86
2020/12/17 06:31:54;;;;;;;16.77;12.30;;;4.40;99.90;;;;;;5013061;28;20282;-84
2020/12/17 06:34:21;;;;;;;19.10;11.25;;;4.50;99.90;;;;;;5011568;28;20294;-84
2020/12/17 06:36:53;;;;;;;13.00;10.02;;;4.50;99.90;;;;;;5012462;28;20293;-87
2020/12/17 06:39:20;;;;;;;11.10;9.90;;;4.60;99.90;;;;;;5012756;28;20285;-86
2020/12/17 06:41:47;;;;;;;16.85;10.15;;;4.60;99.90;;;;;;5012784;28;20710;-86
2020/12/17 06:44:31;;;;;;;13.52;9.68;;;4.70;99.90;;;;;;5012466;28;20282;-87
2020/12/17 06:47:00;;;;;;;13.90;10.27;;;4.80;99.90;;;;;;5012720;28;20628;-86
2020/12/17 06:49:27;;;;;;;10.95;8.85;;;4.90;99.90;;;;;;5011352;28;20294;-85
2020/12/17 06:52:05;;;;;;;12.25;9.05;;;4.90;99.90;;;;;;5012422;28;20719;-86
2020/12/17 06:54:40;;;;;;;8.48;7.22;;;4.80;99.90;;;;;;5012661;28;20539;-85
2020/12/17 06:57:09;;;;;;;13.88;8.65;;;4.80;99.90;;;;;;5012850;28;20302;-86
2020/12/17 06:59:37;;;;;;;12.88;8.95;;;4.80;99.90;;;;;;5012451;28;20231;-84
2020/12/17 07:02:05;;;;;;;16.70;9.30;;;4.80;99.90;;;;;;5012671;28;20295;-85
2020/12/17 07:04:42;;;;;;;10.77;7.90;;;4.80;99.90;;;;;;5011376;28;20316;-84
2020/12/17 07:07:11;;;;;;;9.02;7.60;;;4.80;99.90;;;;;;5012060;28;20733;-84
2020/12/17 07:09:37;;;;;;;10.88;9.75;;;4.80;99.90;;;;;;5004656;28;20246;-86
2020/12/17 07:14:53;;;;;;;11.27;8.02;;;4.80;99.90;;;;;;5003987;28;20207;-87
2020/12/17 07:17:23;;;;;;;11.40;7.78;;;4.80;99.90;;;;;;5012796;28;20215;-84
2020/12/17 07:19:50;;;;;;;9.40;7.93;;;4.90;99.90;;;;;;5011139;28;20203;-85
2020/12/17 07:22:18;;;;;;;15.40;9.55;;;5.00;99.90;;;;;;5012388;28;20290;-86
2020/12/17 07:24:46;;;;;;;12.65;8.55;;;5.10;99.90;;;;;;5013325;28;20262;-85
2020/12/17 07:27:14;;;;;;;12.32;8.77;;;5.10;99.90;;;;;;5015704;28;20322;-85
2020/12/17 07:29:43;;;;;;;11.52;7.45;;;5.20;99.90;;;;;;5015761;28;20299;-85
2020/12/17 07:32:30;;;;;;;9.60;7.82;;;5.20;99.90;;;;;;5015621;28;20294;-84
2020/12/17 07:34:59;;;;;;;9.40;6.72;;;5.30;99.90;;;;;;5009871;28;20242;-84
2020/12/17 07:37:40;;;;;;;9.23;7.57;;;5.40;99.90;;;;;;5015553;28;20298;-84
2020/12/17 07:40:20;;;;;;;9.15;6.80;;;5.40;99.90;;;;;;5015822;28;20292;-84
2020/12/17 07:43:00;;;;;;;8.93;6.47;;;5.40;99.90;;;;;;5015621;28;20294;-86
2020/12/17 07:45:50;;;;;;;8.10;7.20;;;5.50;99.90;;;;;;5016224;28;20660;-84
2020/12/17 07:48:42;;;;;;;10.18;7.68;;;5.50;99.90;;;;;;5015568;28;20691;-84
2020/12/17 07:51:25;;;;;;;8.30;6.55;;;5.60;99.90;;;;;;5015708;28;20685;-84
2020/12/17 07:53:52;;;;;;;7.70;6.50;;;5.60;99.90;;;;;;5014892;28;20203;-84
2020/12/17 07:56:19;;;;;;;9.77;6.47;;;5.70;99.90;;;;;;5015888;28;20683;-86
2020/12/17 07:58:46;;;;;;;8.07;6.82;;;5.80;99.90;;;;;;5015580;28;20232;-84
2020/12/17 08:01:14;;;;;;;8.90;5.80;;;6.00;99.90;;;;;;5015319;28;20694;-83
2020/12/17 08:03:42;;;;;;;8.07;5.53;;;6.10;99.90;;;;;;5013897;28;20641;-83
2020/12/17 08:06:09;;;;;;;6.43;5.82;;;6.10;99.90;;;;;;5015062;28;20231;-84
2020/12/17 08:08:36;;;;;;;6.07;5.25;;;6.20;99.90;;;;;;5014883;28;20262;-82
2020/12/17 08:11:03;;;;;;;6.90;6.13;;;6.30;99.90;;;;;;5015129;28;20286;-82
2020/12/17 08:13:30;;;;;;;7.75;5.22;;;6.40;99.90;;;;;;5015009;28;20770;-83
2020/12/17 08:15:57;;;;;;;8.85;6.95;;;6.50;99.90;;;;;;5014704;28;20238;-83
2020/12/17 08:18:24;;;;;;;7.75;5.20;;;6.50;99.90;;;;;;5014921;28;20239;-84
2020/12/17 08:21:01;;;;;;;7.88;5.90;;;6.60;99.90;;;;;;5013761;28;20639;-88
2020/12/17 08:23:29;;;;;;;6.68;4.75;;;6.60;99.90;;;;;;5014618;28;20281;-85
2020/12/17 08:25:56;;;;;;;5.35;4.70;;;6.90;99.90;;;;;;5014725;28;20235;-81
2020/12/17 08:28:22;;;;;;;6.07;5.50;;;7.00;99.90;;;;;;5014730;28;20617;-82
2020/12/17 08:30:49;;;;;;;7.82;5.20;;;7.00;99.90;;;;;;5015099;28;20294;-84
2020/12/17 08:33:15;;;;;;;6.72;6.13;;;7.10;99.90;;;;;;5014766;28;20246;-81
2020/12/17 08:35:41;;;;;;;6.10;4.50;;;7.00;99.90;;;;;;5016251;28;20298;-78
2020/12/17 08:38:09;;;;;;;5.65;5.03;;;7.00;99.90;;;;;;4998197;28;20212;-83
2020/12/17 08:40:37;;;;;;;4.65;3.92;;;7.00;99.90;;;;;;4995058;28;20291;-80
2020/12/17 08:43:14;;;;;;;5.75;4.63;;;7.10;99.90;;;;;;4995075;28;20287;-80
2020/12/17 08:45:41;;;;;;;6.60;5.07;;;7.30;99.90;;;;;;4997578;28;20320;-79
2020/12/17 08:48:16;;;;;;;7.00;5.55;;;7.30;99.90;;;;;;5004998;28;20239;-80
2020/12/17 08:50:44;;;;;;;7.10;5.20;;;7.40;99.90;;;;;;4999399;28;20208;-79
2020/12/17 08:53:22;;;;;;;5.93;4.13;;;7.40;99.90;;;;;;4999549;28;20699;-79
2020/12/17 08:56:10;;;;;;;5.10;4.57;;;7.40;99.90;;;;;;4997142;28;20534;-82
2020/12/17 08:58:47;;;;;;;5.27;4.73;;;7.50;99.90;;;;;;4994758;28;20515;-80
2020/12/17 09:01:15;;;;;;;5.23;4.70;;;7.60;99.90;;;;;;4994900;28;20490;-81
2020/12/17 09:03:44;;;;;;;6.10;4.28;;;7.60;99.90;;;;;;4993720;28;20458;-80
2020/12/17 09:06:11;;;;;;;5.40;4.50;;;7.70;99.90;;;;;;4995876;28;20685;-80
2020/12/17 09:08:38;;;;;;;6.50;4.40;;;7.60;99.90;;;;;;5014044;28;20379;-80
2020/12/17 09:11:05;;;;;;;5.03;4.63;;;7.70;99.90;;;;;;5013847;28;20450;-81
2020/12/17 09:13:31;;;;;;;7.50;5.17;;;7.70;99.90;;;;;;5014062;28;20560;-80
2020/12/17 09:16:02;;;;;;;6.00;5.10;;;7.80;99.90;;;;;;5013668;28;20613;-79
2020/12/17 09:18:29;;;;;;;5.10;4.60;;;7.70;99.90;;;;;;5013727;28;20546;-81
2020/12/17 09:21:10;;;;;;;6.07;4.17;;;7.80;99.90;;;;;;5012808;28;20557;-80
2020/12/17 09:23:38;;;;;;;6.20;4.30;;;7.90;99.90;;;;;;5013346;28;20447;-80
2020/12/17 09:26:11;;;;;;;4.33;4.03;;;7.90;99.90;;;;;;5013635;28;20598;-79
2020/12/17 09:28:38;;;;;;;6.03;4.80;;;7.80;99.90;;;;;;5005834;28;20521;-82
2020/12/17 09:31:19;;;;;;;4.93;4.23;;;7.70;99.90;;;;;;5013365;28;20554;-79
2020/12/17 09:33:45;;;;;;;5.37;4.10;;;7.70;99.90;;;;;;5012207;28;20548;-81
2020/12/17 09:36:14;;;;;;;4.77;3.80;;;7.60;99.90;;;;;;5013372;28;20546;-80
2020/12/17 09:38:41;;;;;;;4.57;4.17;;;7.60;99.90;;;;;;5013140;28;20616;-79
2020/12/17 09:41:08;;;;;;;6.70;5.50;;;7.50;99.90;;;;;;5013404;28;20534;-80
2020/12/17 09:43:34;;;;;;;4.88;4.35;;;7.30;99.90;;;;;;5013304;28;20533;-80
2020/12/17 09:46:00;;;;;;;6.13;4.13;;;7.20;99.90;;;;;;5016272;28;20303;-83
2020/12/17 09:48:28;;;;;;;5.70;4.40;;;7.20;99.90;;;;;;5012956;28;20258;-84
2020/12/17 09:50:56;;;;;;;5.67;3.93;;;7.20;99.90;;;;;;5012653;28;20451;-84
2020/12/17 09:53:22;;;;;;;3.80;3.50;;;7.20;99.90;;;;;;5013237;28;20461;-83
2020/12/17 09:55:50;;;;;;;4.77;3.90;;;7.20;99.90;;;;;;5013231;28;20556;-84
2020/12/17 09:58:16;;;;;;;4.40;3.40;;;7.20;99.90;;;;;;5013150;28;20605;-86
2020/12/17 10:00:43;;;;;;;5.80;3.85;;;7.20;99.90;;;;;;5013069;28;20290;-85
2020/12/17 10:03:10;;;;;;;3.80;3.20;;;7.40;99.90;;;;;;5013027;28;20199;-84
2020/12/17 10:05:37;;;;;;;5.50;3.55;;;7.50;99.90;;;;;;5004025;28;20207;-80
2020/12/17 10:08:03;;;;;;;13.95;3.95;;;7.70;99.90;;;;;;5012656;28;20631;-79
2020/12/17 10:10:29;;;;;;;5.30;3.95;;;7.90;99.90;;;;;;5013018;28;20298;-80
2020/12/17 10:12:58;;;;;;;4.97;3.50;;;7.90;99.90;;;;;;5012960;28;20254;-82
2020/12/17 10:15:25;;;;;;;5.27;3.40;;;8.00;99.90;;;;;;5013091;28;20451;-82
2020/12/17 10:17:51;;;;;;;4.25;3.10;;;8.20;99.90;;;;;;5012960;28;20533;-83
2020/12/17 10:20:18;;;;;;;3.37;3.13;;;8.40;99.90;;;;;;5011700;28;20293;-83
2020/12/17 10:22:44;;;;;;;4.47;3.10;;;8.50;99.90;;;;;;5012652;28;20546;-81
2020/12/17 10:25:12;;;;;;;4.00;3.33;;;8.60;99.90;;;;;;5009784;28;20451;-83
2020/12/17 10:27:38;;;;;;;3.83;3.43;;;8.50;99.90;;;;;;5012844;28;20434;-83
2020/12/17 10:30:06;;;;;;;5.10;4.00;;;8.50;99.90;;;;;;5012899;28;20549;-80
2020/12/17 10:32:33;;;;;;;6.20;4.70;;;8.50;99.90;;;;;;5012897;28;20478;-80
2020/12/17 10:35:00;;;;;;;6.23;4.63;;;8.60;99.90;;;;;;5011753;28;20922;-81
2020/12/17 10:37:27;;;;;;;3.77;3.30;;;8.70;99.90;;;;;;5012666;28;20494;-81
2020/12/17 10:39:53;;;;;;;5.43;3.80;;;8.80;99.90;;;;;;5012709;28;20549;-82
2020/12/17 10:42:19;;;;;;;4.83;3.30;;;8.80;99.90;;;;;;5012827;28;20909;-80
2020/12/17 10:44:46;;;;;;;3.67;3.37;;;8.90;99.90;;;;;;5012686;28;20529;-83
2020/12/17 10:47:13;;;;;;;5.37;4.23;;;8.90;99.90;;;;;;5012766;28;20593;-80
2020/12/17 10:49:39;;;;;;;9.33;4.00;;;9.00;99.90;;;;;;5011804;28;20564;-81
2020/12/17 10:52:07;;;;;;;5.30;4.40;;;9.10;99.90;;;;;;5012762;28;21047;-81
2020/12/17 10:54:33;;;;;;;5.37;3.80;;;9.20;99.90;;;;;;5012701;28;20454;-81
2020/12/17 10:57:00;;;;;;;5.37;4.20;;;9.00;99.90;;;;;;5012654;28;20905;-79
2020/12/17 10:59:26;;;;;;;6.63;4.50;;;9.20;99.90;;;;;;5014713;28;20863;-82
2020/12/17 11:01:55;;;;;;;3.80;3.50;;;9.20;99.90;;;;;;5016354;28;20546;-80
2020/12/17 11:04:23;;;;;;;3.23;2.93;;;9.30;99.90;;;;;;5015138;28;20529;-79
2020/12/17 11:06:49;;;;;;;6.40;3.87;;;9.30;99.90;;;;;;5015815;28;20584;-78
2020/12/17 11:09:16;;;;;;;3.60;2.80;;;9.40;99.90;;;;;;5016163;28;20490;-80
2020/12/17 11:11:43;;;;;;;4.20;3.67;;;9.40;99.90;;;;;;5016677;28;20454;-79
2020/12/17 11:14:09;;;;;;;4.80;3.90;;;9.50;99.90;;;;;;5016269;28;20541;-80
2020/12/17 11:16:36;;;;;;;5.63;4.73;;;9.60;99.90;;;;;;5016260;28;20533;-79
2020/12/17 11:19:02;;;;;;;4.97;3.80;;;9.60;99.90;;;;;;5014843;28;20497;-81
2020/12/17 11:21:29;;;;;;;3.03;2.53;;;9.60;99.90;;;;;;5015981;28;20509;-80
2020/12/17 11:23:55;;;;;;;3.80;3.20;;;9.60;99.90;;;;;;5015707;28;20553;-80
2020/12/17 11:26:22;;;;;;;6.73;2.97;;;9.60;99.90;;;;;;5015990;28;20524;-81
2020/12/17 11:28:48;;;;;;;2.97;2.77;;;9.70;99.90;;;;;;5015932;28;20576;-79
2020/12/17 11:31:14;;;;;;;3.63;2.70;;;9.80;99.90;;;;;;5015912;28;20451;-80
2020/12/17 11:33:41;;;;;;;3.23;2.60;;;9.90;99.90;;;;;;5014549;28;20546;-80
2020/12/17 11:36:07;;;;;;;3.40;3.10;;;9.80;99.90;;;;;;5015410;28;20513;-79
2020/12/17 11:38:34;;;;;;;3.73;3.20;;;9.80;99.90;;;;;;5015316;28;20545;-81
2020/12/17 11:41:01;;;;;;;4.03;3.47;;;10.00;99.90;;;;;;5015631;28;20877;-81
2020/12/17 11:43:27;;;;;;;3.97;3.57;;;10.20;99.90;;;;;;5015645;28;20469;-80
2020/12/17 11:45:57;;;;;;;3.50;3.20;;;10.20;99.90;;;;;;5015342;28;20521;-81
2020/12/17 11:48:23;;;;;;;4.50;3.57;;;10.40;99.90;;;;;;5015448;28;20454;-83
2020/12/17 11:50:49;;;;;;;5.00;3.53;;;10.40;99.90;;;;;;5014095;28;20553;-78
2020/12/17 11:53:16;;;;;;;3.80;2.97;;;10.50;99.90;;;;;;5015051;28;20510;-80
2020/12/17 11:55:43;;;;;;;3.80;3.23;;;10.60;99.90;;;;;;5015073;28;20861;-79
2020/12/17 11:58:09;;;;;;;4.07;3.33;;;10.70;99.90;;;;;;5015190;28;20521;-77
2020/12/17 12:00:36;;;;;;;4.90;4.40;;;10.80;99.90;;;;;;4992643;28;20460;-78
2020/12/17 12:03:02;;;;;;;3.67;3.37;;;11.00;99.90;;;;;;4995553;28;20542;-79
2020/12/17 12:05:28;;;;;;;7.30;3.77;;;10.90;99.90;;;;;;4994120;28;20503;-78
2020/12/17 12:07:56;;;;;;;4.27;3.60;;;11.00;99.90;;;;;;4995100;28;20964;-80
2020/12/17 12:10:22;;;;;;;5.37;4.37;;;11.00;99.90;;;;;;4994665;28;20950;-80
2020/12/17 12:12:49;;;;;;;4.23;3.83;;;10.80;99.90;;;;;;4995393;28;20542;-78
2020/12/17 12:15:16;;;;;;;4.63;3.87;;;10.70;99.90;;;;;;4995210;28;20463;-80
2020/12/17 12:17:42;;;;;;;3.90;3.50;;;10.70;99.90;;;;;;4995132;28;20491;-79
2020/12/17 12:20:09;;;;;;;3.40;3.10;;;10.60;99.90;;;;;;4993670;28;20538;-86
2020/12/17 12:22:36;;;;;;;5.43;4.87;;;10.70;99.90;;;;;;4953064;28;20535;-81
2020/12/17 12:25:02;;;;;;;5.13;4.47;;;10.50;99.90;;;;;;4995251;28;20451;-80
2020/12/17 12:27:29;;;;;;;6.70;3.97;;;10.40;99.90;;;;;;4994949;28;21065;-78
2020/12/17 12:29:59;;;;;;;4.00;3.60;;;10.30;99.90;;;;;;4994940;28;20462;-79
2020/12/17 12:35:47;;;;;;;4.30;3.70;;;10.50;99.90;;;;;;4992853;28;20957;-79
2020/12/17 12:38:13;;;;;;;4.80;3.90;;;10.60;99.90;;;;;;4992755;28;20878;-80
2020/12/17 12:40:40;;;;;;;4.03;3.73;;;10.50;99.90;;;;;;4994706;28;20550;-79
2020/12/17 12:43:06;;;;;;;3.67;3.37;;;10.50;99.90;;;;;;4994639;28;20568;-80
2020/12/17 12:45:33;;;;;;;4.43;3.90;;;10.50;99.90;;;;;;4994695;28;20543;-79
2020/12/17 12:50:41;;;;;;;6.13;4.37;;;10.60;99.90;;;;;;4967094;28;20443;-80
2020/12/17 12:53:07;;;;;;;7.03;4.23;;;10.70;99.90;;;;;;4976266;28;20546;-80
2020/12/17 12:55:33;;;;;;;6.20;4.60;;;10.80;99.90;;;;;;4994371;28;20549;-79
2020/12/17 12:58:00;;;;;;;5.13;4.50;;;10.80;99.90;;;;;;4994512;28;21031;-80